.
WxDataArchive / Data Records for 2012-03-12
2012-03-11 March 2012 2012-03-13

Data Records for Monday, 12 March 2012

Time	Temp	Chill	HIndex	Humid	Dewpt	 Wind 	HiWind	WindDir	Rain 	Barom 
-----	----	-----	------	-----	-----	------	------	-------	-----	----- 
00:00	45.7	45.7	45.7	65	34.6	0	0	---	0.00	30.174 
00:05	45.7	45.7	45.7	65	34.6	0	0	---	0.00	30.174 
00:10	45.7	45.7	45.7	66	35.0	0	0	---	0.00	30.174 
00:15	45.7	45.7	45.7	66	35.0	0	0	---	0.00	30.165 
00:20	46.0	46.0	46.0	66	35.3	0	0	---	0.00	30.165 
00:25	46.5	46.5	46.5	64	35.0	0	0	---	0.00	30.165 
00:30	47.4	47.4	47.4	62	35.0	0	2	112	0.00	30.159 
00:35	48.8	48.8	48.8	59	35.1	0	2	135	0.00	30.159 
00:40	49.8	49.8	49.8	57	35.2	0	1	135	0.00	30.159 
00:45	50.5	50.5	50.5	55	34.9	0	2	135	0.00	30.153 
00:50	51.3	51.3	51.3	54	35.2	0	2	135	0.00	30.153 
00:55	51.7	51.7	51.7	53	35.1	0	2	112	0.00	30.153 
01:00	52.0	52.0	52.0	52	34.9	0	3	112	0.00	30.141 
01:05	52.3	52.3	52.3	51	34.7	1	2	112	0.00	30.141 
01:10	52.5	52.5	52.5	50	34.4	0	2	112	0.00	30.141 
01:15	52.5	52.5	52.5	50	34.4	0	2	112	0.00	30.129 
01:20	52.5	52.5	52.5	51	34.9	0	3	112	0.00	30.129 
01:25	52.3	52.3	52.3	51	34.7	0	2	112	0.00	30.129 
01:30	52.2	52.2	52.2	51	34.6	0	1	112	0.00	30.124 
01:35	52.0	52.0	52.0	50	33.9	0	1	112	0.00	30.124 
01:40	52.0	52.0	52.0	51	34.4	0	2	112	0.00	30.124 
01:45	51.9	51.9	51.9	51	34.3	0	1	112	0.00	30.120 
01:50	51.7	51.7	51.7	51	34.2	0	1	112	0.00	30.120 
01:55	51.7	51.7	51.7	52	34.6	0	1	112	0.00	30.120 
02:00	51.7	51.7	51.7	53	35.1	0	1	112	0.00	30.114 
02:05	51.6	51.6	51.6	52	34.6	0	1	112	0.00	30.114 
02:10	51.6	51.6	51.6	51	34.1	0	1	112	0.00	30.114 
02:15	51.7	51.7	51.7	51	34.2	0	2	112	0.00	30.109 
02:20	51.9	51.9	51.9	50	33.9	0	2	112	0.00	30.109 
02:25	52.2	52.2	52.2	50	34.1	0	1	112	0.00	30.109 
02:30	52.3	52.3	52.3	50	34.2	0	1	112	0.00	30.106 
02:35	52.5	52.5	52.5	49	33.9	0	2	112	0.00	30.106 
02:40	52.9	52.9	52.9	48	33.7	0	2	112	0.00	30.106 
02:45	53.2	53.2	53.2	48	34.0	0	1	112	0.00	30.103 
02:50	53.6	53.6	53.6	47	33.9	0	2	112	0.00	30.103 
02:55	53.9	53.9	53.9	47	34.1	0	1	112	0.00	30.103 
03:00	54.1	54.1	54.1	46	33.8	0	2	112	0.00	30.101 
03:05	54.2	54.2	54.2	47	34.4	0	1	112	0.00	30.101 
03:10	54.4	54.4	54.4	46	34.1	0	1	112	0.00	30.101 
03:15	54.4	54.4	54.4	46	34.1	0	2	112	0.00	30.094 
03:20	54.7	54.7	54.7	44	33.2	0	2	112	0.00	30.094 
03:25	55.0	55.0	55.0	45	34.1	0	3	112	0.00	30.094 
03:30	55.3	55.3	55.3	43	33.2	1	5	112	0.00	30.089 
03:35	55.4	55.4	55.4	44	33.9	0	2	248	0.00	30.089 
03:40	55.6	55.6	55.6	45	34.6	1	3	248	0.00	30.089 
03:45	55.3	55.3	55.3	50	37.0	0	3	248	0.00	30.098 
03:50	54.5	54.5	54.5	53	37.7	0	1	248	0.00	30.098 
03:55	53.9	53.9	53.9	55	38.1	0	3	248	0.00	30.098 
04:00	53.3	53.3	53.3	59	39.3	1	3	158	0.00	30.086 
04:05	52.8	52.8	52.8	61	39.7	1	4	112	0.00	30.086 
04:10	52.3	52.3	52.3	61	39.3	1	3	112	0.00	30.086 
04:15	52.2	52.2	52.2	60	38.7	1	4	112	0.00	30.081 
04:20	52.2	52.2	52.2	61	39.2	0	2	112	0.00	30.081 
04:25	52.2	52.2	52.2	62	39.6	1	5	112	0.00	30.081 
04:30	52.2	52.2	52.2	63	40.0	1	3	135	0.00	30.070 
04:35	51.9	51.9	51.9	66	40.9	1	2	90	0.00	30.070 
04:40	51.6	51.6	51.6	69	41.8	0	1	112	0.00	30.070 
04:45	51.1	51.1	51.1	71	42.0	0	2	112	0.00	30.066 
04:50	50.7	50.7	50.7	73	42.4	0	2	112	0.00	30.066 
04:55	50.2	50.2	50.2	76	42.9	0	1	112	0.01	30.066 
05:00	49.8	49.8	49.8	77	42.9	0	1	112	0.00	30.056 
05:05	49.4	49.4	49.4	79	43.2	0	1	112	0.00	30.056 
05:10	49.1	49.1	49.1	79	42.9	0	1	112	0.01	30.056 
05:15	48.8	48.8	48.8	80	42.9	0	1	112	0.00	30.058 
05:20	48.8	48.8	48.8	81	43.2	0	0	---	0.01	30.058 
05:25	48.6	48.6	48.6	82	43.4	0	4	135	0.00	30.058 
05:30	48.5	48.5	48.5	84	43.9	0	2	135	0.00	30.057 
05:35	48.3	48.3	48.3	84	43.7	0	1	135	0.00	30.057 
05:40	48.3	48.3	48.3	85	44.0	0	2	135	0.01	30.057 
05:45	48.3	48.3	48.3	86	44.3	0	1	135	0.00	30.056 
05:50	48.3	48.3	48.3	86	44.3	0	1	135	0.00	30.056 
05:55	48.3	48.3	48.3	87	44.6	0	2	135	0.01	30.056 
06:00	48.3	48.3	48.3	88	44.9	1	3	135	0.00	30.050 
06:05	48.3	48.3	48.3	88	44.9	0	1	135	0.00	30.050 
06:10	48.3	48.3	48.3	88	44.9	0	3	135	0.00	30.050 
06:15	48.3	48.3	48.3	88	44.9	0	2	135	0.00	30.047 
06:20	48.3	48.3	48.3	88	44.9	0	3	135	0.01	30.047 
06:25	48.3	48.3	48.3	89	45.2	1	3	112	0.01	30.047 
06:30	48.3	48.3	48.3	89	45.2	1	2	90	0.00	30.044 
06:35	48.3	48.3	48.3	89	45.2	1	3	90	0.01	30.044 
06:40	48.5	48.5	48.5	90	45.7	0	2	112	0.01	30.044 
06:45	48.5	48.5	48.5	90	45.7	1	4	112	0.01	30.040 
06:50	48.6	48.6	48.6	90	45.8	1	3	112	0.01	30.040 
06:55	48.8	48.8	48.8	91	46.3	1	5	135	0.00	30.040 
07:00	48.9	48.9	48.9	91	46.4	1	3	135	0.01	30.034 
07:05	49.1	49.1	49.1	92	46.9	1	5	90	0.01	30.034 
07:10	49.2	49.2	49.2	92	47.0	1	3	135	0.00	30.034 
07:15	49.4	49.4	49.4	92	47.2	1	4	112	0.01	30.036 
07:20	49.6	49.6	49.6	92	47.4	1	3	112	0.00	30.036 
07:25	49.9	49.9	49.9	93	48.0	1	3	68	0.01	30.036 
07:30	50.2	50.2	50.2	93	48.3	2	6	90	0.00	30.033 
07:35	50.5	50.5	50.5	93	48.6	2	6	90	0.00	30.033 
07:40	50.8	50.8	50.8	93	48.8	1	4	135	0.00	30.033 
07:45	51.0	51.0	51.0	93	49.0	1	4	112	0.00	30.031 
07:50	51.0	51.0	51.0	93	49.0	1	4	112	0.00	30.031 
07:55	51.1	51.1	51.1	93	49.1	1	4	112	0.00	30.031 
08:00	51.3	51.3	51.3	93	49.3	1	4	90	0.01	30.033 
08:05	51.4	51.4	51.4	93	49.4	1	4	292	0.00	30.033 
08:10	51.4	51.4	51.4	93	49.4	1	5	90	0.00	30.033 
08:15	51.4	51.4	51.4	93	49.4	0	2	112	0.00	30.035 
08:20	51.6	51.6	51.6	93	49.6	1	3	112	0.00	30.035 
08:25	51.6	51.6	51.6	93	49.6	2	4	135	0.00	30.035 
08:30	51.6	51.6	51.6	93	49.6	2	6	112	0.00	30.032 
08:35	51.7	51.7	51.7	93	49.7	1	3	112	0.00	30.032 
08:40	51.7	51.7	51.7	93	49.7	1	5	112	0.00	30.032 
08:45	51.9	51.9	51.9	93	49.9	2	4	112	0.00	30.028 
08:50	51.9	51.9	51.9	93	49.9	1	5	90	0.00	30.028 
08:55	52.0	52.0	52.0	93	50.0	2	6	90	0.00	30.028 
09:00	52.0	52.0	52.0	93	50.0	1	4	90	0.00	30.028 
09:05	52.2	52.2	52.2	93	50.2	2	7	90	0.01	30.028 
09:10	52.2	52.2	52.2	93	50.2	1	6	112	0.00	30.028 
09:15	52.2	52.2	52.2	93	50.2	1	4	112	0.00	30.032 
09:20	52.3	52.3	52.3	93	50.3	1	3	68	0.00	30.032 
09:25	52.3	52.3	52.3	94	50.6	1	5	90	0.00	30.032 
09:30	52.5	52.5	52.5	94	50.8	1	5	112	0.00	30.030 
09:35	52.6	52.6	52.6	94	50.9	1	3	45	0.00	30.030 
09:40	52.8	52.8	52.8	94	51.1	1	2	45	0.00	30.030 
09:45	52.8	52.8	52.8	94	51.1	0	3	225	0.00	30.032 
09:50	53.1	53.1	53.1	94	51.4	1	4	112	0.00	30.032 
09:55	53.2	53.2	53.2	94	51.5	1	4	90	0.00	30.032 
10:00	53.3	53.3	53.3	94	51.6	1	4	248	0.00	30.029 
10:05	53.6	53.6	53.6	94	51.9	2	6	90	0.00	30.029 
10:10	53.8	53.8	53.8	94	52.1	2	5	112	0.00	30.029 
10:15	53.9	53.9	53.9	94	52.2	2	6	68	0.00	30.026 
10:20	53.9	53.9	53.9	94	52.2	2	5	112	0.00	30.026 
10:25	54.1	54.1	54.1	94	52.4	2	5	135	0.00	30.026 
10:30	54.2	54.2	54.2	94	52.5	1	3	90	0.00	30.020 
10:35	54.2	54.2	54.2	93	52.2	2	5	112	0.00	30.020 
10:40	54.4	54.4	54.4	93	52.4	2	5	90	0.00	30.020 
10:45	54.4	54.4	54.4	93	52.4	1	4	112	0.00	30.017 
10:50	54.5	54.5	54.5	93	52.5	2	5	112	0.00	30.017 
10:55	54.7	54.7	54.7	93	52.7	2	5	90	0.00	30.017 
11:00	54.7	54.7	54.7	93	52.7	1	4	68	0.00	30.021 
11:05	54.7	54.7	54.7	93	52.7	1	2	248	0.00	30.021 
11:10	54.8	54.8	54.8	93	52.8	1	3	270	0.00	30.021 
11:15	55.1	55.1	55.1	93	53.1	1	3	248	0.00	30.019 
11:20	55.4	55.4	55.4	93	53.4	2	6	90	0.00	30.019 
11:25	55.7	55.7	55.7	93	53.7	1	3	248	0.00	30.019 
11:30	56.2	56.2	56.2	93	54.2	1	5	270	0.00	30.010 
11:35	56.6	56.6	56.6	92	54.3	2	9	248	0.00	30.010 
11:40	56.9	56.9	56.9	92	54.6	1	5	68	0.00	30.010 
11:45	57.0	57.0	57.0	90	54.1	3	10	68	0.00	30.004 
11:50	57.5	57.5	57.5	90	54.6	2	7	90	0.00	30.004 
11:55	57.6	57.6	57.6	89	54.4	2	5	248	0.00	30.004 
12:00	57.6	57.6	57.6	88	54.1	3	10	68	0.00	30.001 
12:05	57.8	57.8	57.8	88	54.3	2	5	45	0.00	30.001 
12:10	57.8	57.8	57.8	88	54.3	2	5	90	0.00	30.001 
12:15	58.1	58.1	58.1	87	54.2	1	5	248	0.00	29.995 
12:20	58.1	58.1	58.1	87	54.2	2	5	292	0.00	29.995 
12:25	58.1	58.1	58.1	87	54.2	2	6	315	0.00	29.995 
12:30	58.4	58.4	58.4	87	54.5	1	6	45	0.00	29.982 
12:35	58.7	58.7	58.7	86	54.5	2	7	292	0.00	29.982 
12:40	58.9	58.9	58.9	85	54.4	1	4	248	0.00	29.982 
12:45	58.9	58.9	58.9	85	54.4	1	4	248	0.00	29.977 
12:50	58.9	58.9	58.9	85	54.4	2	5	45	0.00	29.977 
12:55	59.0	59.0	59.0	85	54.5	2	5	90	0.00	29.977 
13:00	59.3	59.3	59.3	84	54.5	2	6	270	0.00	29.965 
13:05	59.5	59.5	59.5	84	54.7	2	4	68	0.00	29.965 
13:10	59.8	59.8	59.8	84	55.0	2	9	90	0.00	29.965 
13:15	59.9	59.9	59.9	83	54.7	2	6	90	0.00	29.959 
13:20	60.1	60.1	60.1	83	54.9	2	6	270	0.00	29.959 
13:25	60.1	60.1	60.1	83	54.9	2	10	90	0.00	29.959 
13:30	60.2	60.2	60.2	83	55.0	1	5	45	0.00	29.956 
13:35	60.4	60.4	60.4	83	55.2	2	6	248	0.00	29.956 
13:40	60.4	60.4	60.4	83	55.2	2	5	248	0.00	29.956 
13:45	60.7	60.7	60.7	83	55.5	2	8	248	0.00	29.947 
13:50	61.0	61.0	61.0	82	55.5	2	9	270	0.00	29.947 
13:55	61.2	61.2	61.2	82	55.7	1	4	248	0.00	29.947 
14:00	61.2	61.2	61.2	81	55.3	1	6	248	0.00	29.941 
14:05	61.2	61.2	61.2	81	55.3	2	5	248	0.00	29.941 
14:10	61.3	61.3	61.3	81	55.4	2	4	248	0.00	29.941 
14:15	61.3	61.3	61.3	81	55.4	2	6	248	0.00	29.929 
14:20	61.5	61.5	61.5	81	55.6	2	14	248	0.00	29.929 
14:25	61.6	61.6	61.6	80	55.4	2	9	248	0.00	29.929 
14:30	61.8	61.8	61.8	80	55.6	2	5	248	0.00	29.919 
14:35	61.8	61.8	61.8	80	55.6	1	4	225	0.00	29.919 
14:40	61.8	61.8	61.8	80	55.6	2	4	248	0.00	29.919 
14:45	62.0	62.0	62.0	80	55.8	1	5	90	0.00	29.909 
14:50	62.0	62.0	62.0	80	55.8	2	9	270	0.00	29.909 
14:55	62.4	62.4	62.4	80	56.1	2	4	248	0.00	29.909 
15:00	62.9	62.9	62.9	79	56.3	2	5	90	0.00	29.896 
15:05	63.1	63.1	63.1	78	56.1	3	7	248	0.00	29.896 
15:10	63.4	63.4	63.4	78	56.4	1	4	112	0.00	29.896 
15:15	63.7	63.7	63.7	77	56.3	2	6	270	0.00	29.889 
15:20	63.9	63.9	63.9	77	56.5	2	7	248	0.00	29.889 
15:25	64.3	64.3	64.3	77	56.9	2	5	45	0.00	29.889 
15:30	64.7	64.7	64.7	76	57.0	2	7	90	0.00	29.878 
15:35	64.7	64.7	64.7	75	56.6	3	12	90	0.00	29.878 
15:40	64.7	64.7	64.7	75	56.6	3	12	202	0.00	29.878 
15:45	64.8	64.8	64.8	75	56.7	2	6	248	0.00	29.868 
15:50	64.8	64.8	64.8	74	56.3	3	10	202	0.00	29.868 
15:55	65.0	65.0	65.0	74	56.5	3	8	248	0.00	29.868 
16:00	65.0	65.0	65.0	73	56.1	3	9	248	0.00	29.863 
16:05	64.8	64.8	64.8	74	56.3	3	15	270	0.00	29.863 
16:10	64.8	64.8	64.8	74	56.3	2	7	90	0.00	29.863 
16:15	65.0	65.0	65.0	75	56.9	2	7	68	0.00	29.864 
16:20	65.0	65.0	65.0	74	56.5	2	8	90	0.00	29.864 
16:25	65.0	65.0	65.0	75	56.9	3	12	90	0.00	29.864 
16:30	64.8	64.8	64.8	73	55.9	3	9	90	0.00	29.852 
16:35	64.7	64.7	64.7	73	55.8	5	13	90	0.00	29.852 
16:40	64.7	64.7	64.7	73	55.8	4	10	248	0.00	29.852 
16:45	64.7	64.7	64.7	73	55.8	3	13	112	0.00	29.848 
16:50	64.8	64.8	64.8	73	55.9	3	9	90	0.00	29.848 
16:55	64.7	64.7	64.7	73	55.8	3	7	270	0.00	29.848 
17:00	64.7	64.7	64.7	73	55.8	3	10	90	0.00	29.835 
17:05	64.5	64.5	64.5	73	55.6	3	10	270	0.00	29.835 
17:10	64.5	64.5	64.5	72	55.3	4	11	270	0.00	29.835 
17:15	64.5	64.5	64.5	72	55.3	4	11	248	0.00	29.836 
17:20	64.5	64.5	64.5	72	55.3	3	7	248	0.00	29.836 
17:25	64.5	64.5	64.5	71	54.9	5	15	248	0.00	29.836 
17:30	64.7	64.7	64.7	70	54.7	5	10	248	0.00	29.824 
17:35	64.7	64.7	64.7	70	54.7	3	11	248	0.00	29.824 
17:40	65.0	65.0	65.0	70	55.0	4	12	248	0.00	29.824 
17:45	65.2	65.2	65.2	71	55.6	3	10	248	0.00	29.815 
17:50	65.5	65.5	65.5	71	55.8	4	10	90	0.00	29.815 
17:55	65.3	65.3	65.3	71	55.6	4	9	68	0.00	29.815 
18:00	65.2	65.2	65.2	71	55.6	3	14	248	0.00	29.818 
18:05	65.2	65.2	65.2	72	55.9	3	10	248	0.00	29.818 
18:10	65.5	65.5	65.5	71	55.8	4	10	248	0.00	29.818 
18:15	65.8	65.8	65.8	72	56.5	1	6	248	0.00	29.818 
18:20	65.8	65.8	65.8	71	56.1	3	10	248	0.00	29.818 
18:25	65.6	65.6	65.6	69	55.1	4	10	270	0.00	29.818 
18:30	65.5	65.5	65.5	70	55.4	3	12	248	0.00	29.822 
18:35	65.5	65.5	65.5	70	55.4	3	11	248	0.00	29.822 
18:40	65.3	65.3	65.3	71	55.6	2	11	248	0.00	29.822 
18:45	65.2	65.2	65.2	71	55.6	2	6	248	0.00	29.827 
18:50	65.2	65.2	65.2	72	55.9	1	6	248	0.00	29.827 
18:55	65.0	65.0	65.0	72	55.7	2	9	248	0.00	29.827 
19:00	65.0	65.0	65.0	72	55.7	3	7	270	0.00	29.825 
19:05	65.0	65.0	65.0	73	56.1	2	4	248	0.00	29.825 
19:10	64.8	64.8	64.8	73	55.9	3	9	225	0.00	29.825 
19:15	64.8	64.8	64.8	73	55.9	2	7	248	0.00	29.826 
19:20	64.7	64.7	64.7	73	55.8	2	9	248	0.00	29.826 
19:25	64.5	64.5	64.5	74	56.0	1	6	248	0.00	29.826 
19:30	64.3	64.3	64.3	74	55.8	1	5	248	0.00	29.828 
19:35	64.2	64.2	64.2	75	56.1	1	4	248	0.00	29.828 
19:40	64.2	64.2	64.2	76	56.5	1	5	270	0.00	29.828 
19:45	64.0	64.0	64.0	76	56.3	1	5	248	0.00	29.829 
19:50	63.9	63.9	63.9	77	56.5	2	5	0	0.00	29.829 
19:55	63.5	63.5	63.5	77	56.2	2	10	270	0.00	29.829 
20:00	63.4	63.4	63.4	77	56.1	2	5	45	0.00	29.820 
20:05	63.2	63.2	63.2	77	55.9	2	7	90	0.00	29.820 
20:10	63.1	63.1	63.1	78	56.1	1	3	270	0.00	29.820 
20:15	62.9	62.9	62.9	78	55.9	1	4	45	0.00	29.820 
20:20	62.7	62.7	62.7	79	56.1	2	5	248	0.00	29.820 
20:25	62.6	62.6	62.6	79	56.0	1	4	112	0.00	29.820 
20:30	62.4	62.4	62.4	80	56.1	2	5	90	0.00	29.819 
20:35	62.3	62.3	62.3	80	56.0	1	4	45	0.00	29.819 
20:40	62.3	62.3	62.3	80	56.0	2	5	112	0.00	29.819 
20:45	62.3	62.3	62.3	81	56.4	2	4	270	0.00	29.820 
20:50	62.3	62.3	62.3	81	56.4	2	7	248	0.00	29.820 
20:55	62.3	62.3	62.3	81	56.4	2	7	248	0.00	29.820 
21:00	62.3	62.3	62.3	81	56.4	3	8	248	0.00	29.820 
21:05	62.4	62.4	62.4	81	56.5	2	10	292	0.00	29.820 
21:10	62.4	62.4	62.4	81	56.5	3	12	248	0.00	29.820 
21:15	62.4	62.4	62.4	81	56.5	2	9	270	0.00	29.820 
21:20	62.3	62.3	62.3	81	56.4	2	7	270	0.00	29.820 
21:25	62.3	62.3	62.3	81	56.4	2	11	270	0.00	29.820 
21:30	62.3	62.3	62.3	81	56.4	3	9	90	0.00	29.814 
21:35	62.3	62.3	62.3	82	56.7	3	11	248	0.00	29.814 
21:40	62.3	62.3	62.3	82	56.7	3	10	248	0.00	29.814 
21:45	62.3	62.3	62.3	82	56.7	3	7	270	0.00	29.812 
21:50	62.1	62.1	62.1	82	56.5	2	9	248	0.00	29.812 
21:55	62.0	62.0	62.0	82	56.4	2	9	248	0.00	29.812 
22:00	61.8	61.8	61.8	83	56.6	2	8	270	0.00	29.816 
22:05	61.6	61.6	61.6	83	56.4	2	7	68	0.00	29.816 
22:10	61.6	61.6	61.6	84	56.7	3	12	248	0.00	29.816 
22:15	61.6	61.6	61.6	84	56.7	3	11	248	0.00	29.814 
22:20	61.6	61.6	61.6	84	56.7	3	10	270	0.00	29.814 
22:25	61.5	61.5	61.5	84	56.6	2	7	270	0.00	29.814 
22:30	61.5	61.5	61.5	85	56.9	3	10	248	0.00	29.816 
22:35	61.5	61.5	61.5	85	56.9	3	7	248	0.00	29.816 
22:40	61.3	61.3	61.3	85	56.7	2	6	248	0.00	29.816 
22:45	61.3	61.3	61.3	85	56.7	3	11	248	0.00	29.817 
22:50	61.3	61.3	61.3	85	56.7	3	6	248	0.00	29.817 
22:55	61.3	61.3	61.3	85	56.7	3	12	248	0.00	29.817 
23:00	61.5	61.5	61.5	85	56.9	3	10	248	0.00	29.830 
23:05	61.5	61.5	61.5	85	56.9	2	6	248	0.00	29.830 
23:10	61.3	61.3	61.3	85	56.7	2	9	248	0.00	29.830 
23:15	61.3	61.3	61.3	85	56.7	2	9	248	0.00	29.831 
23:20	61.3	61.3	61.3	85	56.7	2	6	248	0.00	29.831 
23:25	61.3	61.3	61.3	86	57.1	3	9	248	0.00	29.831 
23:30	61.2	61.2	61.2	85	56.6	1	5	248	0.00	29.840 
23:35	61.2	61.2	61.2	86	57.0	2	9	248	0.00	29.840 
23:40	61.3	61.3	61.3	86	57.1	2	6	248	0.00	29.840 
23:45	61.3	61.3	61.3	86	57.1	3	7	248	0.00	29.849 
23:50	61.5	61.5	61.5	85	56.9	3	7	248	0.00	29.849 
23:55	61.5	61.5	61.5	85	56.9	2	6	248	0.00	29.849 

CoCoRaHS
IN-AL-39
A2 Web Hosting
Creative Commons License
GoDaddy
search engine by freefind advanced

loaded 2018-11-12 15:41:07 • last modified 2010-11-18 10:43:29
Privacy PolicyDisclaimer
• wx.awcolley.com is powered by PmWiki v.2002016 •
• all content (unless otherwise noted) © 2018 A W Colley